sensor_id;sensor_type;location;lat;lon;timestamp;P1;durP1;ratioP1;P2;durP2;ratioP2
22622;SDS011;11478;51.094;7.030;2023-04-15T00:01:57;7.45;;;4.32;;
22622;SDS011;11478;51.094;7.030;2023-04-15T00:04:24;8.70;;;4.47;;
22622;SDS011;11478;51.094;7.030;2023-04-15T00:06:50;12.23;;;5.15;;
22622;SDS011;11478;51.094;7.030;2023-04-15T00:09:17;9.02;;;5.00;;
22622;SDS011;11478;51.094;7.030;2023-04-15T00:11:44;8.80;;;4.63;;
22622;SDS011;11478;51.094;7.030;2023-04-15T00:14:11;11.60;;;5.05;;
22622;SDS011;11478;51.094;7.030;2023-04-15T00:16:37;7.53;;;4.70;;
22622;SDS011;11478;51.094;7.030;2023-04-15T00:19:03;11.50;;;4.90;;
22622;SDS011;11478;51.094;7.030;2023-04-15T00:21:36;12.32;;;5.18;;
22622;SDS011;11478;51.094;7.030;2023-04-15T00:24:01;14.73;;;5.32;;
22622;SDS011;11478;51.094;7.030;2023-04-15T00:26:33;8.57;;;4.78;;
22622;SDS011;11478;51.094;7.030;2023-04-15T00:28:59;11.85;;;5.00;;
22622;SDS011;11478;51.094;7.030;2023-04-15T00:31:28;8.88;;;4.45;;
22622;SDS011;11478;51.094;7.030;2023-04-15T00:33:55;13.73;;;5.43;;
22622;SDS011;11478;51.094;7.030;2023-04-15T00:36:21;10.43;;;5.20;;
22622;SDS011;11478;51.094;7.030;2023-04-15T00:38:47;12.13;;;5.45;;
22622;SDS011;11478;51.094;7.030;2023-04-15T00:41:14;11.35;;;5.20;;
22622;SDS011;11478;51.094;7.030;2023-04-15T00:43:40;13.10;;;5.43;;
22622;SDS011;11478;51.094;7.030;2023-04-15T00:46:08;7.65;;;4.72;;
22622;SDS011;11478;51.094;7.030;2023-04-15T00:48:37;11.70;;;5.30;;
22622;SDS011;11478;51.094;7.030;2023-04-15T00:51:03;9.00;;;4.78;;
22622;SDS011;11478;51.094;7.030;2023-04-15T00:53:29;11.65;;;4.88;;
22622;SDS011;11478;51.094;7.030;2023-04-15T00:55:55;13.25;;;4.78;;
22622;SDS011;11478;51.094;7.030;2023-04-15T00:58:21;11.57;;;4.93;;
22622;SDS011;11478;51.094;7.030;2023-04-15T01:00:47;12.30;;;4.88;;
22622;SDS011;11478;51.094;7.030;2023-04-15T01:03:13;12.85;;;5.05;;
22622;SDS011;11478;51.094;7.030;2023-04-15T01:05:41;10.18;;;4.90;;
22622;SDS011;11478;51.094;7.030;2023-04-15T01:08:07;8.50;;;4.93;;
22622;SDS011;11478;51.094;7.030;2023-04-15T01:10:33;11.13;;;4.95;;
22622;SDS011;11478;51.094;7.030;2023-04-15T01:13:00;12.32;;;5.65;;
22622;SDS011;11478;51.094;7.030;2023-04-15T01:18:12;9.90;;;5.10;;
22622;SDS011;11478;51.094;7.030;2023-04-15T01:20:40;10.15;;;4.85;;
22622;SDS011;11478;51.094;7.030;2023-04-15T01:23:06;11.70;;;4.65;;
22622;SDS011;11478;51.094;7.030;2023-04-15T01:25:33;11.48;;;4.90;;
22622;SDS011;11478;51.094;7.030;2023-04-15T01:27:59;9.25;;;4.68;;
22622;SDS011;11478;51.094;7.030;2023-04-15T01:30:27;6.72;;;4.70;;
22622;SDS011;11478;51.094;7.030;2023-04-15T01:32:53;12.40;;;5.40;;
22622;SDS011;11478;51.094;7.030;2023-04-15T01:37:49;8.63;;;4.30;;
22622;SDS011;11478;51.094;7.030;2023-04-15T01:40:15;13.20;;;4.97;;
22622;SDS011;11478;51.094;7.030;2023-04-15T01:42:41;9.70;;;4.82;;
22622;SDS011;11478;51.094;7.030;2023-04-15T01:45:14;8.77;;;4.72;;
22622;SDS011;11478;51.094;7.030;2023-04-15T01:47:51;8.00;;;4.47;;
22622;SDS011;11478;51.094;7.030;2023-04-15T01:50:17;6.53;;;4.30;;
22622;SDS011;11478;51.094;7.030;2023-04-15T01:52:44;9.35;;;4.95;;
22622;SDS011;11478;51.094;7.030;2023-04-15T01:55:11;7.88;;;4.13;;
22622;SDS011;11478;51.094;7.030;2023-04-15T01:57:38;8.23;;;4.15;;
22622;SDS011;11478;51.094;7.030;2023-04-15T02:00:04;8.95;;;4.45;;
22622;SDS011;11478;51.094;7.030;2023-04-15T02:02:34;8.80;;;4.90;;
22622;SDS011;11478;51.094;7.030;2023-04-15T02:05:00;9.05;;;4.40;;
22622;SDS011;11478;51.094;7.030;2023-04-15T02:07:25;11.88;;;4.75;;
22622;SDS011;11478;51.094;7.030;2023-04-15T02:09:52;10.95;;;4.50;;
22622;SDS011;11478;51.094;7.030;2023-04-15T02:12:18;9.80;;;4.53;;
22622;SDS011;11478;51.094;7.030;2023-04-15T02:14:44;6.53;;;4.35;;
22622;SDS011;11478;51.094;7.030;2023-04-15T02:17:10;7.82;;;4.38;;
22622;SDS011;11478;51.094;7.030;2023-04-15T02:19:36;8.88;;;4.20;;
22622;SDS011;11478;51.094;7.030;2023-04-15T02:22:06;7.38;;;4.05;;
22622;SDS011;11478;51.094;7.030;2023-04-15T02:24:33;8.00;;;4.30;;
22622;SDS011;11478;51.094;7.030;2023-04-15T02:27:05;5.47;;;3.78;;
22622;SDS011;11478;51.094;7.030;2023-04-15T02:29:31;8.52;;;4.78;;
22622;SDS011;11478;51.094;7.030;2023-04-15T02:32:01;9.30;;;4.88;;
22622;SDS011;11478;51.094;7.030;2023-04-15T02:34:27;6.90;;;4.70;;
22622;SDS011;11478;51.094;7.030;2023-04-15T02:36:57;9.07;;;4.63;;
22622;SDS011;11478;51.094;7.030;2023-04-15T02:39:23;9.25;;;4.35;;
22622;SDS011;11478;51.094;7.030;2023-04-15T02:41:59;7.03;;;4.03;;
22622;SDS011;11478;51.094;7.030;2023-04-15T02:44:25;9.50;;;4.20;;
22622;SDS011;11478;51.094;7.030;2023-04-15T02:46:52;12.18;;;5.30;;
22622;SDS011;11478;51.094;7.030;2023-04-15T02:49:28;11.82;;;5.13;;
22622;SDS011;11478;51.094;7.030;2023-04-15T02:51:55;8.98;;;4.93;;
22622;SDS011;11478;51.094;7.030;2023-04-15T02:54:23;9.57;;;4.97;;
22622;SDS011;11478;51.094;7.030;2023-04-15T02:56:50;8.85;;;4.75;;
22622;SDS011;11478;51.094;7.030;2023-04-15T02:59:20;10.40;;;4.72;;
22622;SDS011;11478;51.094;7.030;2023-04-15T03:01:46;11.07;;;4.72;;
22622;SDS011;11478;51.094;7.030;2023-04-15T03:04:14;7.80;;;4.95;;
22622;SDS011;11478;51.094;7.030;2023-04-15T03:06:40;9.02;;;4.65;;
22622;SDS011;11478;51.094;7.030;2023-04-15T03:09:08;7.97;;;4.65;;
22622;SDS011;11478;51.094;7.030;2023-04-15T03:11:34;9.82;;;5.32;;
22622;SDS011;11478;51.094;7.030;2023-04-15T03:14:11;10.63;;;5.03;;
22622;SDS011;11478;51.094;7.030;2023-04-15T03:16:37;8.45;;;5.03;;
22622;SDS011;11478;51.094;7.030;2023-04-15T03:19:04;7.05;;;4.80;;
22622;SDS011;11478;51.094;7.030;2023-04-15T03:21:30;6.50;;;4.63;;
22622;SDS011;11478;51.094;7.030;2023-04-15T03:23:56;11.90;;;4.80;;
22622;SDS011;11478;51.094;7.030;2023-04-15T03:26:22;13.18;;;4.97;;
22622;SDS011;11478;51.094;7.030;2023-04-15T03:28:51;8.63;;;4.93;;
22622;SDS011;11478;51.094;7.030;2023-04-15T03:31:16;8.38;;;4.85;;
22622;SDS011;11478;51.094;7.030;2023-04-15T03:33:42;7.60;;;5.20;;
22622;SDS011;11478;51.094;7.030;2023-04-15T03:36:08;7.40;;;4.90;;
22622;SDS011;11478;51.094;7.030;2023-04-15T03:41:05;9.27;;;5.00;;
22622;SDS011;11478;51.094;7.030;2023-04-15T03:43:37;8.27;;;4.93;;
22622;SDS011;11478;51.094;7.030;2023-04-15T03:46:03;10.05;;;5.70;;
22622;SDS011;11478;51.094;7.030;2023-04-15T03:48:29;7.90;;;5.20;;
22622;SDS011;11478;51.094;7.030;2023-04-15T03:50:55;10.10;;;5.20;;
22622;SDS011;11478;51.094;7.030;2023-04-15T03:53:21;7.90;;;5.10;;
22622;SDS011;11478;51.094;7.030;2023-04-15T03:55:57;10.70;;;4.45;;
22622;SDS011;11478;51.094;7.030;2023-04-15T03:58:23;7.57;;;4.88;;
22622;SDS011;11478;51.094;7.030;2023-04-15T04:00:50;7.60;;;4.38;;
22622;SDS011;11478;51.094;7.030;2023-04-15T04:03:16;9.63;;;5.35;;
22622;SDS011;11478;51.094;7.030;2023-04-15T04:05:47;7.85;;;5.00;;
22622;SDS011;11478;51.094;7.030;2023-04-15T04:08:13;7.57;;;4.95;;
22622;SDS011;11478;51.094;7.030;2023-04-15T04:10:44;8.15;;;5.65;;
22622;SDS011;11478;51.094;7.030;2023-04-15T04:13:10;10.23;;;6.25;;
22622;SDS011;11478;51.094;7.030;2023-04-15T04:15:43;13.23;;;5.80;;
22622;SDS011;11478;51.094;7.030;2023-04-15T04:18:09;12.15;;;5.60;;
22622;SDS011;11478;51.094;7.030;2023-04-15T04:20:35;7.93;;;5.50;;
22622;SDS011;11478;51.094;7.030;2023-04-15T04:23:01;8.48;;;5.38;;
22622;SDS011;11478;51.094;7.030;2023-04-15T04:25:28;12.27;;;5.55;;
22622;SDS011;11478;51.094;7.030;2023-04-15T04:27:54;11.13;;;5.85;;
22622;SDS011;11478;51.094;7.030;2023-04-15T04:30:20;10.43;;;5.50;;
22622;SDS011;11478;51.094;7.030;2023-04-15T04:32:47;10.88;;;5.40;;
22622;SDS011;11478;51.094;7.030;2023-04-15T04:35:15;11.07;;;6.72;;
22622;SDS011;11478;51.094;7.030;2023-04-15T04:37:41;10.05;;;5.53;;
22622;SDS011;11478;51.094;7.030;2023-04-15T04:40:07;12.23;;;5.95;;
22622;SDS011;11478;51.094;7.030;2023-04-15T04:42:33;13.65;;;6.68;;
22622;SDS011;11478;51.094;7.030;2023-04-15T04:47:33;10.43;;;5.80;;
22622;SDS011;11478;51.094;7.030;2023-04-15T04:49:58;13.88;;;6.57;;
22622;SDS011;11478;51.094;7.030;2023-04-15T04:52:26;10.85;;;6.50;;
22622;SDS011;11478;51.094;7.030;2023-04-15T04:54:54;12.00;;;6.60;;
22622;SDS011;11478;51.094;7.030;2023-04-15T04:57:22;9.27;;;5.97;;
22622;SDS011;11478;51.094;7.030;2023-04-15T04:59:48;12.35;;;6.97;;
22622;SDS011;11478;51.094;7.030;2023-04-15T05:02:15;11.30;;;6.70;;
22622;SDS011;11478;51.094;7.030;2023-04-15T05:04:41;10.00;;;6.35;;
22622;SDS011;11478;51.094;7.030;2023-04-15T05:07:08;10.30;;;6.45;;
22622;SDS011;11478;51.094;7.030;2023-04-15T05:09:33;8.60;;;5.80;;
22622;SDS011;11478;51.094;7.030;2023-04-15T05:12:01;14.23;;;6.70;;
22622;SDS011;11478;51.094;7.030;2023-04-15T05:14:28;11.88;;;6.60;;
22622;SDS011;11478;51.094;7.030;2023-04-15T05:16:54;12.63;;;6.72;;
22622;SDS011;11478;51.094;7.030;2023-04-15T05:19:20;12.05;;;6.82;;
22622;SDS011;11478;51.094;7.030;2023-04-15T05:21:47;9.43;;;6.93;;
22622;SDS011;11478;51.094;7.030;2023-04-15T05:24:13;9.40;;;6.60;;
22622;SDS011;11478;51.094;7.030;2023-04-15T05:26:39;8.15;;;6.65;;
22622;SDS011;11478;51.094;7.030;2023-04-15T05:29:05;12.73;;;6.45;;
22622;SDS011;11478;51.094;7.030;2023-04-15T05:31:31;9.90;;;6.10;;
22622;SDS011;11478;51.094;7.030;2023-04-15T05:33:57;11.57;;;6.43;;
22622;SDS011;11478;51.094;7.030;2023-04-15T05:36:24;12.70;;;7.25;;
22622;SDS011;11478;51.094;7.030;2023-04-15T05:38:50;10.60;;;6.60;;
22622;SDS011;11478;51.094;7.030;2023-04-15T05:41:16;12.25;;;6.30;;
22622;SDS011;11478;51.094;7.030;2023-04-15T05:43:42;12.90;;;6.30;;
22622;SDS011;11478;51.094;7.030;2023-04-15T05:46:09;9.48;;;6.90;;
22622;SDS011;11478;51.094;7.030;2023-04-15T05:48:35;11.05;;;7.03;;
22622;SDS011;11478;51.094;7.030;2023-04-15T05:51:01;9.85;;;6.47;;
22622;SDS011;11478;51.094;7.030;2023-04-15T05:53:28;8.88;;;6.72;;
22622;SDS011;11478;51.094;7.030;2023-04-15T05:55:54;9.82;;;6.15;;
22622;SDS011;11478;51.094;7.030;2023-04-15T05:58:26;11.70;;;5.95;;
22622;SDS011;11478;51.094;7.030;2023-04-15T06:00:52;8.98;;;6.35;;
22622;SDS011;11478;51.094;7.030;2023-04-15T06:03:18;9.98;;;5.68;;
22622;SDS011;11478;51.094;7.030;2023-04-15T06:05:44;6.78;;;4.43;;
22622;SDS011;11478;51.094;7.030;2023-04-15T06:08:10;11.25;;;4.50;;
22622;SDS011;11478;51.094;7.030;2023-04-15T06:10:36;11.50;;;5.28;;
22622;SDS011;11478;51.094;7.030;2023-04-15T06:13:02;14.60;;;5.38;;
22622;SDS011;11478;51.094;7.030;2023-04-15T06:15:28;6.50;;;5.00;;
22622;SDS011;11478;51.094;7.030;2023-04-15T06:17:54;11.23;;;6.22;;
22622;SDS011;11478;51.094;7.030;2023-04-15T06:20:20;8.85;;;5.57;;
22622;SDS011;11478;51.094;7.030;2023-04-15T06:22:49;9.88;;;5.90;;
22622;SDS011;11478;51.094;7.030;2023-04-15T06:25:16;10.93;;;5.88;;
22622;SDS011;11478;51.094;7.030;2023-04-15T06:27:42;7.03;;;5.38;;
22622;SDS011;11478;51.094;7.030;2023-04-15T06:30:08;8.68;;;4.75;;
22622;SDS011;11478;51.094;7.030;2023-04-15T06:32:34;8.15;;;5.07;;
22622;SDS011;11478;51.094;7.030;2023-04-15T06:35:00;17.23;;;12.48;;
22622;SDS011;11478;51.094;7.030;2023-04-15T06:37:26;15.98;;;11.98;;
22622;SDS011;11478;51.094;7.030;2023-04-15T06:39:52;14.10;;;10.25;;
22622;SDS011;11478;51.094;7.030;2023-04-15T06:42:18;9.80;;;7.10;;
22622;SDS011;11478;51.094;7.030;2023-04-15T06:44:44;10.25;;;6.20;;
22622;SDS011;11478;51.094;7.030;2023-04-15T06:47:16;10.57;;;6.13;;
22622;SDS011;11478;51.094;7.030;2023-04-15T06:49:43;8.73;;;5.63;;
22622;SDS011;11478;51.094;7.030;2023-04-15T06:52:11;9.65;;;5.60;;
22622;SDS011;11478;51.094;7.030;2023-04-15T06:54:37;10.38;;;6.07;;
22622;SDS011;11478;51.094;7.030;2023-04-15T06:57:05;11.27;;;7.25;;
22622;SDS011;11478;51.094;7.030;2023-04-15T06:59:31;13.10;;;8.60;;
22622;SDS011;11478;51.094;7.030;2023-04-15T07:04:27;9.20;;;6.53;;
22622;SDS011;11478;51.094;7.030;2023-04-15T07:06:53;10.02;;;6.00;;
22622;SDS011;11478;51.094;7.030;2023-04-15T07:09:20;7.75;;;5.70;;
22622;SDS011;11478;51.094;7.030;2023-04-15T07:11:47;6.80;;;5.07;;
22622;SDS011;11478;51.094;7.030;2023-04-15T07:14:14;5.30;;;4.50;;
22622;SDS011;11478;51.094;7.030;2023-04-15T07:16:44;6.45;;;4.25;;
22622;SDS011;11478;51.094;7.030;2023-04-15T07:19:12;6.30;;;4.28;;
22622;SDS011;11478;51.094;7.030;2023-04-15T07:21:39;9.20;;;4.85;;
22622;SDS011;11478;51.094;7.030;2023-04-15T07:24:05;7.07;;;4.85;;
22622;SDS011;11478;51.094;7.030;2023-04-15T07:26:31;5.85;;;4.40;;
22622;SDS011;11478;51.094;7.030;2023-04-15T07:28:57;5.82;;;4.18;;
22622;SDS011;11478;51.094;7.030;2023-04-15T07:31:23;5.82;;;3.72;;
22622;SDS011;11478;51.094;7.030;2023-04-15T07:33:49;6.80;;;3.53;;
22622;SDS011;11478;51.094;7.030;2023-04-15T07:38:48;7.43;;;3.88;;
22622;SDS011;11478;51.094;7.030;2023-04-15T07:41:16;5.03;;;2.90;;
22622;SDS011;11478;51.094;7.030;2023-04-15T07:43:42;4.18;;;3.30;;
22622;SDS011;11478;51.094;7.030;2023-04-15T07:46:10;5.75;;;3.50;;
22622;SDS011;11478;51.094;7.030;2023-04-15T07:48:37;4.13;;;2.90;;
22622;SDS011;11478;51.094;7.030;2023-04-15T07:51:03;3.55;;;2.72;;
22622;SDS011;11478;51.094;7.030;2023-04-15T07:53:30;5.18;;;2.90;;
22622;SDS011;11478;51.094;7.030;2023-04-15T07:55:57;4.53;;;3.33;;
22622;SDS011;11478;51.094;7.030;2023-04-15T07:58:23;6.35;;;3.67;;
22622;SDS011;11478;51.094;7.030;2023-04-15T08:00:50;3.90;;;3.47;;
22622;SDS011;11478;51.094;7.030;2023-04-15T08:03:16;5.18;;;3.50;;
22622;SDS011;11478;51.094;7.030;2023-04-15T08:05:42;4.40;;;3.70;;
22622;SDS011;11478;51.094;7.030;2023-04-15T08:08:08;5.18;;;3.83;;
22622;SDS011;11478;51.094;7.030;2023-04-15T08:10:34;4.38;;;3.38;;
22622;SDS011;11478;51.094;7.030;2023-04-15T08:13:03;4.13;;;3.40;;
22622;SDS011;11478;51.094;7.030;2023-04-15T08:15:30;4.47;;;2.97;;
22622;SDS011;11478;51.094;7.030;2023-04-15T08:17:59;3.60;;;2.90;;
22622;SDS011;11478;51.094;7.030;2023-04-15T08:20:25;4.93;;;3.42;;
22622;SDS011;11478;51.094;7.030;2023-04-15T08:22:52;5.10;;;3.13;;
22622;SDS011;11478;51.094;7.030;2023-04-15T08:25:18;4.10;;;3.10;;
22622;SDS011;11478;51.094;7.030;2023-04-15T08:27:47;3.20;;;2.70;;
22622;SDS011;11478;51.094;7.030;2023-04-15T08:30:13;3.00;;;2.50;;
22622;SDS011;11478;51.094;7.030;2023-04-15T08:32:46;3.72;;;2.60;;
22622;SDS011;11478;51.094;7.030;2023-04-15T08:35:13;3.95;;;2.58;;
22622;SDS011;11478;51.094;7.030;2023-04-15T08:40:11;4.88;;;3.20;;
22622;SDS011;11478;51.094;7.030;2023-04-15T08:42:44;4.10;;;3.33;;
22622;SDS011;11478;51.094;7.030;2023-04-15T08:45:16;5.88;;;3.38;;
22622;SDS011;11478;51.094;7.030;2023-04-15T08:47:46;5.70;;;3.30;;
22622;SDS011;11478;51.094;7.030;2023-04-15T08:50:16;4.63;;;3.30;;
22622;SDS011;11478;51.094;7.030;2023-04-15T08:52:42;4.97;;;3.38;;
22622;SDS011;11478;51.094;7.030;2023-04-15T08:55:08;4.18;;;3.22;;
22622;SDS011;11478;51.094;7.030;2023-04-15T08:57:37;4.30;;;3.15;;
22622;SDS011;11478;51.094;7.030;2023-04-15T09:00:04;4.45;;;2.90;;
22622;SDS011;11478;51.094;7.030;2023-04-15T09:02:32;4.10;;;3.00;;
22622;SDS011;11478;51.094;7.030;2023-04-15T09:04:58;8.38;;;2.75;;
22622;SDS011;11478;51.094;7.030;2023-04-15T09:09:53;3.65;;;2.65;;
22622;SDS011;11478;51.094;7.030;2023-04-15T09:12:21;4.65;;;3.30;;
22622;SDS011;11478;51.094;7.030;2023-04-15T09:14:50;4.57;;;3.20;;
22622;SDS011;11478;51.094;7.030;2023-04-15T09:17:17;4.63;;;3.00;;
22622;SDS011;11478;51.094;7.030;2023-04-15T09:19:45;3.85;;;2.92;;
22622;SDS011;11478;51.094;7.030;2023-04-15T09:25:26;3.97;;;2.40;;
22622;SDS011;11478;51.094;7.030;2023-04-15T09:27:53;4.25;;;2.55;;
22622;SDS011;11478;51.094;7.030;2023-04-15T09:30:24;4.35;;;3.03;;
22622;SDS011;11478;51.094;7.030;2023-04-15T09:32:52;4.50;;;3.00;;
22622;SDS011;11478;51.094;7.030;2023-04-15T09:35:24;4.65;;;2.88;;
22622;SDS011;11478;51.094;7.030;2023-04-15T09:37:52;4.00;;;3.00;;
22622;SDS011;11478;51.094;7.030;2023-04-15T09:40:32;4.68;;;3.67;;
22622;SDS011;11478;51.094;7.030;2023-04-15T09:43:00;4.28;;;3.50;;
22622;SDS011;11478;51.094;7.030;2023-04-15T09:45:26;4.25;;;3.42;;
22622;SDS011;11478;51.094;7.030;2023-04-15T09:47:55;4.43;;;3.40;;
22622;SDS011;11478;51.094;7.030;2023-04-15T09:50:22;5.32;;;4.00;;
22622;SDS011;11478;51.094;7.030;2023-04-15T09:52:53;6.15;;;4.05;;
22622;SDS011;11478;51.094;7.030;2023-04-15T09:55:19;4.80;;;3.92;;
22622;SDS011;11478;51.094;7.030;2023-04-15T09:57:47;5.15;;;3.92;;
22622;SDS011;11478;51.094;7.030;2023-04-15T10:00:13;5.03;;;3.65;;
22622;SDS011;11478;51.094;7.030;2023-04-15T10:02:41;4.15;;;3.55;;
22622;SDS011;11478;51.094;7.030;2023-04-15T10:05:11;3.95;;;3.35;;
22622;SDS011;11478;51.094;7.030;2023-04-15T10:07:40;4.57;;;3.58;;
22622;SDS011;11478;51.094;7.030;2023-04-15T10:10:07;4.57;;;3.53;;
22622;SDS011;11478;51.094;7.030;2023-04-15T10:12:36;4.95;;;3.38;;
22622;SDS011;11478;51.094;7.030;2023-04-15T10:15:05;4.10;;;3.38;;
22622;SDS011;11478;51.094;7.030;2023-04-15T10:17:33;3.60;;;3.28;;
22622;SDS011;11478;51.094;7.030;2023-04-15T10:20:01;5.50;;;3.33;;
22622;SDS011;11478;51.094;7.030;2023-04-15T10:22:29;5.35;;;3.20;;
22622;SDS011;11478;51.094;7.030;2023-04-15T10:24:57;3.95;;;3.00;;
22622;SDS011;11478;51.094;7.030;2023-04-15T10:27:27;3.97;;;3.20;;
22622;SDS011;11478;51.094;7.030;2023-04-15T10:29:54;3.78;;;3.05;;
22622;SDS011;11478;51.094;7.030;2023-04-15T10:34:50;2.95;;;2.65;;
22622;SDS011;11478;51.094;7.030;2023-04-15T10:37:21;2.75;;;2.55;;
22622;SDS011;11478;51.094;7.030;2023-04-15T10:39:57;3.13;;;2.67;;
22622;SDS011;11478;51.094;7.030;2023-04-15T10:42:32;2.55;;;2.28;;
22622;SDS011;11478;51.094;7.030;2023-04-15T10:44:59;2.30;;;2.10;;
22622;SDS011;11478;51.094;7.030;2023-04-15T10:47:25;7.30;;;2.80;;
22622;SDS011;11478;51.094;7.030;2023-04-15T10:49:58;4.55;;;2.88;;
22622;SDS011;11478;51.094;7.030;2023-04-15T10:52:27;3.10;;;2.80;;
22622;SDS011;11478;51.094;7.030;2023-04-15T10:55:11;5.10;;;3.20;;
22622;SDS011;11478;51.094;7.030;2023-04-15T10:57:42;3.90;;;3.28;;
22622;SDS011;11478;51.094;7.030;2023-04-15T11:00:10;4.75;;;3.10;;
22622;SDS011;11478;51.094;7.030;2023-04-15T11:05:14;3.90;;;3.00;;
22622;SDS011;11478;51.094;7.030;2023-04-15T11:07:56;3.05;;;2.75;;
22622;SDS011;11478;51.094;7.030;2023-04-15T11:12:57;3.30;;;3.00;;
22622;SDS011;11478;51.094;7.030;2023-04-15T11:15:35;4.47;;;3.40;;
22622;SDS011;11478;51.094;7.030;2023-04-15T11:20:34;4.70;;;3.45;;
22622;SDS011;11478;51.094;7.030;2023-04-15T11:23:01;4.07;;;2.88;;
22622;SDS011;11478;51.094;7.030;2023-04-15T11:25:35;3.15;;;2.85;;
22622;SDS011;11478;51.094;7.030;2023-04-15T11:28:02;3.50;;;3.20;;
22622;SDS011;11478;51.094;7.030;2023-04-15T11:30:33;4.13;;;3.10;;
22622;SDS011;11478;51.094;7.030;2023-04-15T11:33:02;3.58;;;2.92;;
22622;SDS011;11478;51.094;7.030;2023-04-15T11:35:29;4.38;;;3.47;;
22622;SDS011;11478;51.094;7.030;2023-04-15T11:37:55;4.32;;;3.40;;
22622;SDS011;11478;51.094;7.030;2023-04-15T11:40:29;3.00;;;2.70;;
22622;SDS011;11478;51.094;7.030;2023-04-15T11:43:07;3.55;;;3.00;;
22622;SDS011;11478;51.094;7.030;2023-04-15T11:45:51;4.28;;;3.35;;
22622;SDS011;11478;51.094;7.030;2023-04-15T11:48:20;3.53;;;3.22;;
22622;SDS011;11478;51.094;7.030;2023-04-15T11:51:02;5.20;;;3.40;;
22622;SDS011;11478;51.094;7.030;2023-04-15T11:56:09;4.88;;;3.45;;
22622;SDS011;11478;51.094;7.030;2023-04-15T11:58:36;4.78;;;4.32;;
22622;SDS011;11478;51.094;7.030;2023-04-15T12:01:05;4.80;;;4.30;;
22622;SDS011;11478;51.094;7.030;2023-04-15T12:03:42;4.63;;;4.15;;
22622;SDS011;11478;51.094;7.030;2023-04-15T12:11:32;5.15;;;4.22;;
22622;SDS011;11478;51.094;7.030;2023-04-15T12:14:10;4.30;;;3.58;;
22622;SDS011;11478;51.094;7.030;2023-04-15T12:16:47;3.97;;;3.38;;
22622;SDS011;11478;51.094;7.030;2023-04-15T12:19:56;4.78;;;3.28;;
22622;SDS011;11478;51.094;7.030;2023-04-15T12:24:35;4.53;;;3.92;;
22622;SDS011;11478;51.094;7.030;2023-04-15T12:29:30;5.57;;;5.07;;
22622;SDS011;11478;51.094;7.030;2023-04-15T12:32:05;5.82;;;5.18;;
22622;SDS011;11478;51.094;7.030;2023-04-15T12:34:36;5.68;;;4.95;;
22622;SDS011;11478;51.094;7.030;2023-04-15T12:37:04;6.68;;;6.07;;
22622;SDS011;11478;51.094;7.030;2023-04-15T12:39:41;7.15;;;6.45;;
22622;SDS011;11478;51.094;7.030;2023-04-15T12:42:08;6.95;;;6.00;;
22622;SDS011;11478;51.094;7.030;2023-04-15T12:44:35;7.82;;;7.13;;
22622;SDS011;11478;51.094;7.030;2023-04-15T12:47:02;7.60;;;6.80;;
22622;SDS011;11478;51.094;7.030;2023-04-15T12:49:28;8.77;;;6.63;;
22622;SDS011;11478;51.094;7.030;2023-04-15T12:51:56;6.95;;;6.22;;
22622;SDS011;11478;51.094;7.030;2023-04-15T12:54:26;8.23;;;6.32;;
22622;SDS011;11478;51.094;7.030;2023-04-15T12:56:54;7.22;;;6.50;;
22622;SDS011;11478;51.094;7.030;2023-04-15T12:59:20;8.43;;;7.07;;
22622;SDS011;11478;51.094;7.030;2023-04-15T13:01:48;11.13;;;7.20;;
22622;SDS011;11478;51.094;7.030;2023-04-15T13:04:15;8.48;;;7.30;;
22622;SDS011;11478;51.094;7.030;2023-04-15T13:06:43;8.25;;;7.43;;
22622;SDS011;11478;51.094;7.030;2023-04-15T13:09:09;8.38;;;6.78;;
22622;SDS011;11478;51.094;7.030;2023-04-15T13:11:35;8.35;;;7.05;;
22622;SDS011;11478;51.094;7.030;2023-04-15T13:14:02;7.60;;;6.80;;
22622;SDS011;11478;51.094;7.030;2023-04-15T13:16:32;7.00;;;6.22;;
22622;SDS011;11478;51.094;7.030;2023-04-15T13:18:59;7.50;;;6.80;;
22622;SDS011;11478;51.094;7.030;2023-04-15T13:21:27;8.45;;;6.55;;
22622;SDS011;11478;51.094;7.030;2023-04-15T13:23:53;8.40;;;6.70;;
22622;SDS011;11478;51.094;7.030;2023-04-15T13:26:19;7.30;;;6.25;;
22622;SDS011;11478;51.094;7.030;2023-04-15T13:28:46;7.75;;;6.03;;
22622;SDS011;11478;51.094;7.030;2023-04-15T13:31:19;8.45;;;6.45;;
22622;SDS011;11478;51.094;7.030;2023-04-15T13:33:45;7.57;;;6.83;;
22622;SDS011;11478;51.094;7.030;2023-04-15T13:36:11;10.20;;;6.88;;
22622;SDS011;11478;51.094;7.030;2023-04-15T13:38:37;10.07;;;8.57;;
22622;SDS011;11478;51.094;7.030;2023-04-15T13:41:05;8.98;;;8.00;;
22622;SDS011;11478;51.094;7.030;2023-04-15T13:43:31;10.05;;;8.05;;
22622;SDS011;11478;51.094;7.030;2023-04-15T13:45:58;8.48;;;7.68;;
22622;SDS011;11478;51.094;7.030;2023-04-15T13:48:24;9.90;;;8.80;;
22622;SDS011;11478;51.094;7.030;2023-04-15T13:50:51;11.20;;;9.82;;
22622;SDS011;11478;51.094;7.030;2023-04-15T13:53:16;9.73;;;8.73;;
22622;SDS011;11478;51.094;7.030;2023-04-15T13:55:49;9.90;;;8.80;;
22622;SDS011;11478;51.094;7.030;2023-04-15T13:58:14;9.48;;;8.48;;
22622;SDS011;11478;51.094;7.030;2023-04-15T14:00:41;9.82;;;8.52;;
22622;SDS011;11478;51.094;7.030;2023-04-15T14:03:07;10.40;;;8.60;;
22622;SDS011;11478;51.094;7.030;2023-04-15T14:05:33;8.40;;;7.57;;
22622;SDS011;11478;51.094;7.030;2023-04-15T14:07:59;9.68;;;6.97;;
22622;SDS011;11478;51.094;7.030;2023-04-15T14:10:28;6.72;;;6.03;;
22622;SDS011;11478;51.094;7.030;2023-04-15T14:12:54;6.85;;;5.80;;
22622;SDS011;11478;51.094;7.030;2023-04-15T14:15:20;6.18;;;5.15;;
22622;SDS011;11478;51.094;7.030;2023-04-15T14:17:46;5.57;;;4.30;;
22622;SDS011;11478;51.094;7.030;2023-04-15T14:20:12;5.95;;;4.70;;
22622;SDS011;11478;51.094;7.030;2023-04-15T14:22:38;6.00;;;4.82;;
22622;SDS011;11478;51.094;7.030;2023-04-15T14:25:05;5.85;;;4.13;;
22622;SDS011;11478;51.094;7.030;2023-04-15T14:27:34;5.88;;;3.88;;
22622;SDS011;11478;51.094;7.030;2023-04-15T14:30:01;5.85;;;4.00;;
22622;SDS011;11478;51.094;7.030;2023-04-15T14:32:28;5.38;;;4.18;;
22622;SDS011;11478;51.094;7.030;2023-04-15T14:34:54;6.25;;;4.45;;
22622;SDS011;11478;51.094;7.030;2023-04-15T14:37:20;5.72;;;4.10;;
22622;SDS011;11478;51.094;7.030;2023-04-15T14:39:55;6.53;;;4.22;;
22622;SDS011;11478;51.094;7.030;2023-04-15T14:42:21;5.45;;;3.50;;
22622;SDS011;11478;51.094;7.030;2023-04-15T14:44:47;9.13;;;3.92;;
22622;SDS011;11478;51.094;7.030;2023-04-15T14:47:14;8.20;;;3.97;;
22622;SDS011;11478;51.094;7.030;2023-04-15T14:49:41;4.65;;;3.53;;
22622;SDS011;11478;51.094;7.030;2023-04-15T14:52:08;5.15;;;3.65;;
22622;SDS011;11478;51.094;7.030;2023-04-15T14:54:34;4.15;;;3.50;;
22622;SDS011;11478;51.094;7.030;2023-04-15T14:57:00;4.95;;;3.85;;
22622;SDS011;11478;51.094;7.030;2023-04-15T14:59:26;4.50;;;4.00;;
22622;SDS011;11478;51.094;7.030;2023-04-15T15:01:54;7.97;;;3.95;;
22622;SDS011;11478;51.094;7.030;2023-04-15T15:04:20;6.10;;;4.10;;
22622;SDS011;11478;51.094;7.030;2023-04-15T15:06:51;6.45;;;4.30;;
22622;SDS011;11478;51.094;7.030;2023-04-15T15:09:17;5.47;;;4.10;;
22622;SDS011;11478;51.094;7.030;2023-04-15T15:14:12;4.82;;;3.95;;
22622;SDS011;11478;51.094;7.030;2023-04-15T15:16:38;5.50;;;4.10;;
22622;SDS011;11478;51.094;7.030;2023-04-15T15:19:04;6.72;;;4.30;;
22622;SDS011;11478;51.094;7.030;2023-04-15T15:21:33;6.70;;;4.32;;
22622;SDS011;11478;51.094;7.030;2023-04-15T15:24:01;6.90;;;4.22;;
22622;SDS011;11478;51.094;7.030;2023-04-15T15:26:28;7.25;;;4.15;;
22622;SDS011;11478;51.094;7.030;2023-04-15T15:28:54;6.22;;;4.55;;
22622;SDS011;11478;51.094;7.030;2023-04-15T15:31:24;6.68;;;4.80;;
22622;SDS011;11478;51.094;7.030;2023-04-15T15:33:50;8.73;;;4.50;;
22622;SDS011;11478;51.094;7.030;2023-04-15T15:36:18;7.75;;;4.97;;
22622;SDS011;11478;51.094;7.030;2023-04-15T15:38:44;9.38;;;4.97;;